PWSweather.com
Personal Weather Stations
Station Observations
KMAWOBUR2
West Side, Woburn, MA 01801

West SideWoburn, MA 01801

Lat: 42.458, Lon: -71.1955

Elevation: 160

Station Type: DAVIS/Vantage Pro2

http://pauland.net

Latest ConditionsUpdated 4:05:05 PM GMT Saturday, Jan 31, 2015
Currently Today's Max Today's Min Today's Average
Temperature 16.2°F-8.8°C 29.7°F-1.3°C 9.5°F-12.5°C 16.3°F-8.7°C
Dew Point -5537.2°C 23.0°F-5.0°C -6.0°F-21.1°C 6.6°F-14.1°C
Winds 7.0 mph WNW11.3 kmh WNW 26.0 mph N41.8 kmh N - 6.4 mph 10.3 kmh
Wind Gusts 18.0 mph29.0 kmh 26.0 mph41.8 kmh - -
Humidity 35% 76% 35% 60%
Pressure 29.81 in1009.5 mb 29.81 in1009.5 mb 29.69 in1005.4 mb -
Hour Temp Dew Point Humidity Winds Wind Gusts Pressure Precip Precip Rate Daily Precip Total
04:05 PM 16.2°F-8.8°C -5537.2°C 35% 7.0 mph WNW11.3 kmh WNW 18.0 mph29.0 kmh 29.81 in1009.5 mb 0.00 in0.0 mm 0.00 in/hr0.0 mm/hr 0.00 in0.0 mm
04:00 PM 16.1°F-8.8°C -5537.2°C 36% 8.0 mph NNW12.9 kmh NNW 20.0 mph32.2 kmh 29.81 in1009.5 mb 0.00 in0.0 mm 0.00 in/hr0.0 mm/hr 0.00 in0.0 mm
03:55 PM 15.6°F-9.1°C -6.0°F-21.1°C 37% 15.0 mph NNW24.1 kmh NNW 19.0 mph30.6 kmh 29.80 in1009.1 mb 0.00 in0.0 mm 0.00 in/hr0.0 mm/hr 0.00 in0.0 mm
03:50 PM 15.6°F-9.1°C -5537.2°C 38% 13.0 mph NNW20.9 kmh NNW 26.0 mph41.8 kmh 29.80 in1009.1 mb 0.00 in0.0 mm 0.00 in/hr0.0 mm/hr 0.00 in0.0 mm
03:45 PM 14.9°F-9.5°C -5537.2°C 38% 13.0 mph N20.9 kmh N 26.0 mph41.8 kmh 29.80 in1009.1 mb 0.00 in0.0 mm 0.00 in/hr0.0 mm/hr 0.00 in0.0 mm
03:40 PM 14.9°F-9.5°C -5537.2°C 38% 26.0 mph N41.8 kmh N 26.0 mph41.8 kmh 29.81 in1009.5 mb 0.00 in0.0 mm 0.00 in/hr0.0 mm/hr 0.00 in0.0 mm
03:35 PM 14.8°F-9.6°C -5537.2°C 39% 7.0 mph NNW11.3 kmh NNW 21.0 mph33.8 kmh 29.81 in1009.5 mb 0.00 in0.0 mm 0.00 in/hr0.0 mm/hr 0.00 in0.0 mm
03:30 PM 15.2°F-9.3°C -5537.2°C 40% 4.0 mph WSW6.4 kmh WSW 26.0 mph41.8 kmh 29.81 in1009.5 mb 0.00 in0.0 mm 0.00 in/hr0.0 mm/hr 0.00 in0.0 mm
03:25 PM 15.2°F-9.3°C -5537.2°C 38% 9.0 mph NW14.5 kmh NW 15.0 mph24.1 kmh 29.81 in1009.5 mb 0.00 in0.0 mm 0.00 in/hr0.0 mm/hr 0.00 in0.0 mm
03:20 PM 14.9°F-9.5°C -5537.2°C 39% 2.0 mph N3.2 kmh N 14.0 mph22.5 kmh 29.81 in1009.5 mb 0.00 in0.0 mm 0.00 in/hr0.0 mm/hr 0.00 in0.0 mm
03:15 PM 14.1°F-9.9°C -5537.2°C 39% 3.0 mph N4.8 kmh N 13.0 mph20.9 kmh 29.81 in1009.5 mb 0.00 in0.0 mm 0.00 in/hr0.0 mm/hr 0.00 in0.0 mm
03:10 PM 13.3°F-10.4°C -6.0°F-21.1°C 41% 3.0 mph N4.8 kmh N 15.0 mph24.1 kmh 29.80 in1009.1 mb 0.00 in0.0 mm 0.00 in/hr0.0 mm/hr 0.00 in0.0 mm
03:05 PM 12.8°F-10.7°C -5537.2°C 43% 10.0 mph N16.1 kmh N 12.0 mph19.3 kmh 29.80 in1009.1 mb 0.00 in0.0 mm 0.00 in/hr0.0 mm/hr 0.00 in0.0 mm
03:00 PM 12.8°F-10.7°C -6.0°F-21.1°C 42% 8.0 mph NW12.9 kmh NW 19.0 mph30.6 kmh 29.80 in1009.1 mb 0.00 in0.0 mm 0.00 in/hr0.0 mm/hr 0.00 in0.0 mm
02:55 PM 12.6°F-10.8°C -5537.2°C 44% 4.0 mph NW6.4 kmh NW 9.0 mph14.5 kmh 29.81 in1009.5 mb 0.00 in0.0 mm 0.00 in/hr0.0 mm/hr 0.00 in0.0 mm
02:50 PM 11.9°F-11.2°C -5537.2°C 45% 6.0 mph NNW9.7 kmh NNW 21.0 mph33.8 kmh 29.81 in1009.5 mb 0.00 in0.0 mm 0.00 in/hr0.0 mm/hr 0.00 in0.0 mm
02:45 PM 11.7°F-11.3°C -6.0°F-21.1°C 44% 7.0 mph NNE11.3 kmh NNE 17.0 mph27.4 kmh 29.81 in1009.5 mb 0.00 in0.0 mm 0.00 in/hr0.0 mm/hr 0.00 in0.0 mm
02:40 PM 11.6°F-11.3°C -5537.2°C 46% 3.0 mph N4.8 kmh N 22.0 mph35.4 kmh 29.80 in1009.1 mb 0.00 in0.0 mm 0.00 in/hr0.0 mm/hr 0.00 in0.0 mm
02:35 PM 11.4°F-11.4°C -5537.2°C 46% 6.0 mph NW9.7 kmh NW 18.0 mph29.0 kmh 29.80 in1009.1 mb 0.00 in0.0 mm 0.00 in/hr0.0 mm/hr 0.00 in0.0 mm
02:30 PM 11.4°F-11.4°C -5537.2°C 47% 14.0 mph N22.5 kmh N 16.0 mph25.7 kmh 29.80 in1009.1 mb 0.00 in0.0 mm 0.00 in/hr0.0 mm/hr 0.00 in0.0 mm
02:25 PM 11.4°F-11.4°C -5537.2°C 47% 9.0 mph WSW14.5 kmh WSW 21.0 mph33.8 kmh 29.80 in1009.1 mb 0.00 in0.0 mm 0.00 in/hr0.0 mm/hr 0.00 in0.0 mm
02:20 PM 11.4°F-11.4°C -5537.2°C 47% 19.0 mph NW30.6 kmh NW 19.0 mph30.6 kmh 29.80 in1009.1 mb 0.00 in0.0 mm 0.00 in/hr0.0 mm/hr 0.00 in0.0 mm
02:15 PM 11.4°F-11.4°C -5537.2°C 47% 13.0 mph N20.9 kmh N 24.0 mph38.6 kmh 29.80 in1009.1 mb 0.00 in0.0 mm 0.00 in/hr0.0 mm/hr 0.00 in0.0 mm
02:10 PM 11.4°F-11.4°C -5537.2°C 48% 7.0 mph N11.3 kmh N 23.0 mph37.0 kmh 29.80 in1009.1 mb 0.00 in0.0 mm 0.00 in/hr0.0 mm/hr 0.00 in0.0 mm
02:05 PM 11.6°F-11.3°C -5537.2°C 49% 12.0 mph NNW19.3 kmh NNW 20.0 mph32.2 kmh 29.80 in1009.1 mb 0.00 in0.0 mm 0.00 in/hr0.0 mm/hr 0.00 in0.0 mm
02:00 PM 11.6°F-11.3°C -5537.2°C 49% 6.0 mph NNW9.7 kmh NNW 16.0 mph25.7 kmh 29.80 in1009.1 mb 0.00 in0.0 mm 0.00 in/hr0.0 mm/hr 0.00 in0.0 mm
01:55 PM 11.4°F-11.4°C -5537.2°C 50% 9.0 mph N14.5 kmh N 12.0 mph19.3 kmh 29.79 in1008.8 mb 0.00 in0.0 mm 0.00 in/hr0.0 mm/hr 0.00 in0.0 mm
01:50 PM 11.4°F-11.4°C -5537.2°C 50% 6.0 mph NNE9.7 kmh NNE 18.0 mph29.0 kmh 29.79 in1008.8 mb 0.00 in0.0 mm 0.00 in/hr0.0 mm/hr 0.00 in0.0 mm
01:45 PM 11.4°F-11.4°C -5537.2°C 50% 4.0 mph WSW6.4 kmh WSW 18.0 mph29.0 kmh 29.79 in1008.8 mb 0.00 in0.0 mm 0.00 in/hr0.0 mm/hr 0.00 in0.0 mm
01:40 PM 11.2°F-11.6°C -5537.2°C 51% 16.0 mph N25.7 kmh N 20.0 mph32.2 kmh 29.79 in1008.8 mb 0.00 in0.0 mm 0.00 in/hr0.0 mm/hr 0.00 in0.0 mm
01:35 PM 11.2°F-11.6°C -3.0°F-19.4°C 52% 4.0 mph NW6.4 kmh NW 24.0 mph38.6 kmh 29.79 in1008.8 mb 0.00 in0.0 mm 0.00 in/hr0.0 mm/hr 0.00 in0.0 mm
01:30 PM 11.2°F-11.6°C -3.0°F-19.4°C 52% 8.0 mph NW12.9 kmh NW 17.0 mph27.4 kmh 29.79 in1008.8 mb 0.00 in0.0 mm 0.00 in/hr0.0 mm/hr 0.00 in0.0 mm
01:25 PM 11.1°F-11.6°C -5537.2°C 53% 3.0 mph NNW4.8 kmh NNW 14.0 mph22.5 kmh 29.79 in1008.8 mb 0.00 in0.0 mm 0.00 in/hr0.0 mm/hr 0.00 in0.0 mm
01:20 PM 11.1°F-11.6°C -5537.2°C 53% 8.0 mph NNW12.9 kmh NNW 15.0 mph24.1 kmh 29.79 in1008.8 mb 0.00 in0.0 mm 0.00 in/hr0.0 mm/hr 0.00 in0.0 mm
01:15 PM 10.9°F-11.7°C -5537.2°C 54% 7.0 mph N11.3 kmh N 13.0 mph20.9 kmh 29.79 in1008.8 mb 0.00 in0.0 mm 0.00 in/hr0.0 mm/hr 0.00 in0.0 mm
01:10 PM 10.9°F-11.7°C -5537.2°C 54% 5.0 mph NW8.0 kmh NW 15.0 mph24.1 kmh 29.79 in1008.8 mb 0.00 in0.0 mm 0.00 in/hr0.0 mm/hr 0.00 in0.0 mm
01:05 PM 10.9°F-11.7°C -5537.2°C 54% 5.0 mph NW8.0 kmh NW 16.0 mph25.7 kmh 29.79 in1008.8 mb 0.00 in0.0 mm 0.00 in/hr0.0 mm/hr 0.00 in0.0 mm
01:00 PM 10.7°F-11.8°C -5537.2°C 55% 12.0 mph N19.3 kmh N 14.0 mph22.5 kmh 29.79 in1008.8 mb 0.00 in0.0 mm 0.00 in/hr0.0 mm/hr 0.00 in0.0 mm
12:55 PM 10.7°F-11.8°C -5537.2°C 56% 7.0 mph N11.3 kmh N 12.0 mph19.3 kmh 29.79 in1008.8 mb 0.00 in0.0 mm 0.00 in/hr0.0 mm/hr 0.00 in0.0 mm
12:50 PM 10.5°F-11.9°C -5537.2°C 57% 4.0 mph NNW6.4 kmh NNW 20.0 mph32.2 kmh 29.79 in1008.8 mb 0.00 in0.0 mm 0.00 in/hr0.0 mm/hr 0.00 in0.0 mm
12:45 PM 10.5°F-11.9°C -5537.2°C 58% 3.0 mph NW4.8 kmh NW 17.0 mph27.4 kmh 29.79 in1008.8 mb 0.00 in0.0 mm 0.00 in/hr0.0 mm/hr 0.00 in0.0 mm
12:40 PM 10.4°F-12.0°C -5537.2°C 59% 5.0 mph NW8.0 kmh NW 16.0 mph25.7 kmh 29.77 in1008.1 mb 0.00 in0.0 mm 0.00 in/hr0.0 mm/hr 0.00 in0.0 mm
12:35 PM 10.2°F-12.1°C -5537.2°C 60% 5.0 mph NW8.0 kmh NW 13.0 mph20.9 kmh 29.77 in1008.1 mb 0.00 in0.0 mm 0.00 in/hr0.0 mm/hr 0.00 in0.0 mm
12:30 PM 10.2°F-12.1°C -5537.2°C 61% 8.0 mph N12.9 kmh N 17.0 mph27.4 kmh 29.77 in1008.1 mb 0.00 in0.0 mm 0.00 in/hr0.0 mm/hr 0.00 in0.0 mm
12:25 PM 10.0°F-12.2°C -5537.2°C 63% 4.0 mph NNW6.4 kmh NNW 15.0 mph24.1 kmh 29.78 in1008.5 mb 0.00 in0.0 mm 0.00 in/hr0.0 mm/hr 0.00 in0.0 mm
12:20 PM 9.9°F-12.3°C 0.1°F-17.7°C 64% 5.0 mph NW8.0 kmh NW 24.0 mph38.6 kmh 29.78 in1008.5 mb 0.00 in0.0 mm 0.00 in/hr0.0 mm/hr 0.00 in0.0 mm
12:15 PM 9.9°F-12.3°C 0.8°F-17.3°C 66% 6.0 mph NNW9.7 kmh NNW 22.0 mph35.4 kmh 29.78 in1008.5 mb 0.00 in0.0 mm 0.00 in/hr0.0 mm/hr 0.00 in0.0 mm
12:10 PM 9.7°F-12.4°C 1.2°F-17.1°C 68% 7.0 mph N11.3 kmh N 17.0 mph27.4 kmh 29.77 in1008.1 mb 0.00 in0.0 mm 0.00 in/hr0.0 mm/hr 0.00 in0.0 mm
12:05 PM 9.7°F-12.4°C 1.6°F-16.9°C 69% 5.0 mph NW8.0 kmh NW 13.0 mph20.9 kmh 29.77 in1008.1 mb 0.00 in0.0 mm 0.00 in/hr0.0 mm/hr 0.00 in0.0 mm
12:00 PM 9.5°F-12.5°C 2.0°F-16.7°C 71% 1.0 mph W1.6 kmh W 17.0 mph27.4 kmh 29.77 in1008.1 mb 0.00 in0.0 mm 0.00 in/hr0.0 mm/hr 0.00 in0.0 mm
11:55 AM 9.5°F-12.5°C 2.3°F-16.5°C 72% 10.0 mph NW16.1 kmh NW 15.0 mph24.1 kmh 29.77 in1008.1 mb 0.00 in0.0 mm 0.00 in/hr0.0 mm/hr 0.00 in0.0 mm
11:50 AM 9.7°F-12.4°C 2.2°F-16.6°C 71% 14.0 mph NNW22.5 kmh NNW 16.0 mph25.7 kmh 29.77 in1008.1 mb 0.00 in0.0 mm 0.00 in/hr0.0 mm/hr 0.00 in0.0 mm
11:45 AM 9.7°F-12.4°C 2.5°F-16.4°C 72% 6.0 mph NNW9.7 kmh NNW 17.0 mph27.4 kmh 29.77 in1008.1 mb 0.00 in0.0 mm 0.00 in/hr0.0 mm/hr 0.00 in0.0 mm
11:40 AM 9.7°F-12.4°C 2.2°F-16.6°C 71% 3.0 mph W4.8 kmh W 23.0 mph37.0 kmh 29.76 in1007.8 mb 0.00 in0.0 mm 0.00 in/hr0.0 mm/hr 0.00 in0.0 mm
11:35 AM 9.7°F-12.4°C 2.5°F-16.4°C 72% 4.0 mph NW6.4 kmh NW 10.0 mph16.1 kmh 29.76 in1007.8 mb 0.00 in0.0 mm 0.00 in/hr0.0 mm/hr 0.00 in0.0 mm
11:30 AM 9.7°F-12.4°C 2.5°F-16.4°C 72% 3.0 mph NW4.8 kmh NW 10.0 mph16.1 kmh 29.76 in1007.8 mb 0.00 in0.0 mm 0.00 in/hr0.0 mm/hr 0.00 in0.0 mm
11:25 AM 9.7°F-12.4°C 2.8°F-16.2°C 73% 8.0 mph NW12.9 kmh NW 19.0 mph30.6 kmh 29.76 in1007.8 mb 0.00 in0.0 mm 0.00 in/hr0.0 mm/hr 0.00 in0.0 mm
11:20 AM 9.7°F-12.4°C 2.8°F-16.2°C 73% 5.0 mph SW8.0 kmh SW 14.0 mph22.5 kmh 29.76 in1007.8 mb 0.00 in0.0 mm 0.00 in/hr0.0 mm/hr 0.00 in0.0 mm
11:15 AM 9.7°F-12.4°C 2.8°F-16.2°C 73% 2.0 mph NW3.2 kmh NW 19.0 mph30.6 kmh 29.76 in1007.8 mb 0.00 in0.0 mm 0.00 in/hr0.0 mm/hr 0.00 in0.0 mm
11:10 AM 9.9°F-12.3°C 3.0°F-16.1°C 73% 4.0 mph NW6.4 kmh NW 18.0 mph29.0 kmh 29.76 in1007.8 mb 0.00 in0.0 mm 0.00 in/hr0.0 mm/hr 0.00 in0.0 mm
11:05 AM 10.0°F-12.2°C 2.8°F-16.2°C 72% 6.0 mph NNE9.7 kmh NNE 14.0 mph22.5 kmh 29.76 in1007.8 mb 0.00 in0.0 mm 0.00 in/hr0.0 mm/hr 0.00 in0.0 mm
11:00 AM 10.0°F-12.2°C 2.8°F-16.2°C 72% Calm Calm 17.0 mph27.4 kmh 29.76 in1007.8 mb 0.00 in0.0 mm 0.00 in/hr0.0 mm/hr 0.00 in0.0 mm
10:55 AM 10.2°F-12.1°C 2.6°F-16.3°C 71% 7.0 mph NW11.3 kmh NW 17.0 mph27.4 kmh 29.75 in1007.5 mb 0.00 in0.0 mm 0.00 in/hr0.0 mm/hr 0.00 in0.0 mm
10:50 AM 10.4°F-12.0°C 2.5°F-16.4°C 70% 6.0 mph N9.7 kmh N 16.0 mph25.7 kmh 29.75 in1007.5 mb 0.00 in0.0 mm 0.00 in/hr0.0 mm/hr 0.00 in0.0 mm
10:45 AM 10.5°F-11.9°C 2.0°F-16.7°C 68% 1.0 mph NNW1.6 kmh NNW 13.0 mph20.9 kmh 29.75 in1007.5 mb 0.00 in0.0 mm 0.00 in/hr0.0 mm/hr 0.00 in0.0 mm
10:40 AM 10.7°F-11.8°C 1.6°F-16.9°C 66% 5.0 mph WNW8.0 kmh WNW 23.0 mph37.0 kmh 29.74 in1007.1 mb 0.00 in0.0 mm 0.00 in/hr0.0 mm/hr 0.00 in0.0 mm
10:35 AM 10.9°F-11.7°C 1.4°F-17.0°C 65% 5.0 mph NNW8.0 kmh NNW 21.0 mph33.8 kmh 29.74 in1007.1 mb 0.00 in0.0 mm 0.00 in/hr0.0 mm/hr 0.00 in0.0 mm
10:30 AM 11.1°F-11.6°C 1.3°F-17.1°C 64% 9.0 mph NNW14.5 kmh NNW 18.0 mph29.0 kmh 29.74 in1007.1 mb 0.00 in0.0 mm 0.00 in/hr0.0 mm/hr 0.00 in0.0 mm
10:25 AM 11.4°F-11.4°C 1.6°F-16.9°C 64% 11.0 mph N17.7 kmh N 13.0 mph20.9 kmh 29.74 in1007.1 mb 0.00 in0.0 mm 0.00 in/hr0.0 mm/hr 0.00 in0.0 mm
10:20 AM 11.6°F-11.3°C 1.8°F-16.8°C 64% 5.0 mph NNW8.0 kmh NNW 15.0 mph24.1 kmh 29.74 in1007.1 mb 0.00 in0.0 mm 0.00 in/hr0.0 mm/hr 0.00 in0.0 mm
10:15 AM 11.6°F-11.3°C 1.4°F-17.0°C 63% 3.0 mph N4.8 kmh N 15.0 mph24.1 kmh 29.74 in1007.1 mb 0.00 in0.0 mm 0.00 in/hr0.0 mm/hr 0.00 in0.0 mm
10:10 AM 11.7°F-11.3°C 1.5°F-16.9°C 63% 6.0 mph N9.7 kmh N 12.0 mph19.3 kmh 29.73 in1006.8 mb 0.00 in0.0 mm 0.00 in/hr0.0 mm/hr 0.00 in0.0 mm
10:05 AM 11.9°F-11.2°C 1.7°F-16.8°C 63% 5.0 mph N8.0 kmh N 20.0 mph32.2 kmh 29.73 in1006.8 mb 0.00 in0.0 mm 0.00 in/hr0.0 mm/hr 0.00 in0.0 mm
10:00 AM 11.9°F-11.2°C 1.4°F-17.0°C 62% 4.0 mph S6.4 kmh S 15.0 mph24.1 kmh 29.73 in1006.8 mb 0.00 in0.0 mm 0.00 in/hr0.0 mm/hr 0.00 in0.0 mm
09:55 AM 11.9°F-11.2°C 1.7°F-16.8°C 63% 4.0 mph N6.4 kmh N 12.0 mph19.3 kmh 29.73 in1006.8 mb 0.00 in0.0 mm 0.00 in/hr0.0 mm/hr 0.00 in0.0 mm
09:50 AM 12.1°F-11.1°C 1.6°F-16.9°C 62% 7.0 mph NW11.3 kmh NW 17.0 mph27.4 kmh 29.73 in1006.8 mb 0.00 in0.0 mm 0.00 in/hr0.0 mm/hr 0.00 in0.0 mm
09:45 AM 12.3°F-10.9°C 1.8°F-16.8°C 62% 4.0 mph NW6.4 kmh NW 17.0 mph27.4 kmh 29.73 in1006.8 mb 0.00 in0.0 mm 0.00 in/hr0.0 mm/hr 0.00 in0.0 mm
09:40 AM 12.4°F-10.9°C 1.8°F-16.8°C 62% 2.0 mph NW3.2 kmh NW 20.0 mph32.2 kmh 29.72 in1006.4 mb 0.00 in0.0 mm 0.00 in/hr0.0 mm/hr 0.00 in0.0 mm
09:35 AM 12.6°F-10.8°C 2.0°F-16.7°C 62% 4.0 mph WNW6.4 kmh WNW 14.0 mph22.5 kmh 29.72 in1006.4 mb 0.00 in0.0 mm 0.00 in/hr0.0 mm/hr 0.00 in0.0 mm
09:30 AM 12.8°F-10.7°C 1.9°F-16.7°C 61% 1.0 mph W1.6 kmh W 21.0 mph33.8 kmh 29.72 in1006.4 mb 0.00 in0.0 mm 0.00 in/hr0.0 mm/hr 0.00 in0.0 mm
09:25 AM 12.9°F-10.6°C 2.0°F-16.7°C 61% 2.0 mph NNW3.2 kmh NNW 18.0 mph29.0 kmh 29.71 in1006.1 mb 0.00 in0.0 mm 0.00 in/hr0.0 mm/hr 0.00 in0.0 mm
09:20 AM 13.1°F-10.5°C 2.2°F-16.6°C 61% 7.0 mph N11.3 kmh N 16.0 mph25.7 kmh 29.71 in1006.1 mb 0.00 in0.0 mm 0.00 in/hr0.0 mm/hr 0.00 in0.0 mm
09:15 AM 13.3°F-10.4°C 2.4°F-16.4°C 61% 6.0 mph W9.7 kmh W 13.0 mph20.9 kmh 29.71 in1006.1 mb 0.00 in0.0 mm 0.00 in/hr0.0 mm/hr 0.00 in0.0 mm
09:10 AM 13.3°F-10.4°C 2.4°F-16.4°C 61% 3.0 mph N4.8 kmh N 13.0 mph20.9 kmh 29.71 in1006.1 mb 0.00 in0.0 mm 0.00 in/hr0.0 mm/hr 0.00 in0.0 mm
09:05 AM 13.5°F-10.3°C 2.2°F-16.6°C 60% 6.0 mph 9.7 kmh 14.0 mph22.5 kmh 29.71 in1006.1 mb 0.00 in0.0 mm 0.00 in/hr0.0 mm/hr 0.00 in0.0 mm
09:00 AM 13.5°F-10.3°C 1.8°F-16.8°C 59% 7.0 mph NNW11.3 kmh NNW 12.0 mph19.3 kmh 29.71 in1006.1 mb 0.00 in0.0 mm 0.00 in/hr0.0 mm/hr 0.00 in0.0 mm
08:55 AM 13.6°F-10.2°C 1.9°F-16.7°C 59% 6.0 mph WNW9.7 kmh WNW 13.0 mph20.9 kmh 29.71 in1006.1 mb 0.00 in0.0 mm 0.00 in/hr0.0 mm/hr 0.00 in0.0 mm
08:50 AM 13.6°F-10.2°C 1.6°F-16.9°C 58% 7.0 mph NNW11.3 kmh NNW 16.0 mph25.7 kmh 29.71 in1006.1 mb 0.00 in0.0 mm 0.00 in/hr0.0 mm/hr 0.00 in0.0 mm
08:45 AM 13.8°F-10.1°C 1.7°F-16.8°C 58% 4.0 mph NW6.4 kmh NW 18.0 mph29.0 kmh 29.71 in1006.1 mb 0.00 in0.0 mm 0.00 in/hr0.0 mm/hr 0.00 in0.0 mm
08:40 AM 13.8°F-10.1°C 1.7°F-16.8°C 58% 8.0 mph N12.9 kmh N 14.0 mph22.5 kmh 29.70 in1005.8 mb 0.00 in0.0 mm 0.00 in/hr0.0 mm/hr 0.00 in0.0 mm
08:35 AM 13.8°F-10.1°C 1.7°F-16.8°C 58% 8.0 mph NNW12.9 kmh NNW 19.0 mph30.6 kmh 29.70 in1005.8 mb 0.00 in0.0 mm 0.00 in/hr0.0 mm/hr 0.00 in0.0 mm
08:30 AM 14.0°F-10.0°C 1.9°F-16.7°C 58% 3.0 mph NW4.8 kmh NW 16.0 mph25.7 kmh 29.70 in1005.8 mb 0.00 in0.0 mm 0.00 in/hr0.0 mm/hr 0.00 in0.0 mm
08:25 AM 14.0°F-10.0°C 1.9°F-16.7°C 58% 5.0 mph NNW8.0 kmh NNW 18.0 mph29.0 kmh 29.70 in1005.8 mb 0.00 in0.0 mm 0.00 in/hr0.0 mm/hr 0.00 in0.0 mm
08:20 AM 14.0°F-10.0°C 1.9°F-16.7°C 58% 8.0 mph NNE12.9 kmh NNE 20.0 mph32.2 kmh 29.70 in1005.8 mb 0.00 in0.0 mm 0.00 in/hr0.0 mm/hr 0.00 in0.0 mm
08:15 AM 14.1°F-9.9°C 2.0°F-16.7°C 58% 9.0 mph NW14.5 kmh NW 15.0 mph24.1 kmh 29.70 in1005.8 mb 0.00 in0.0 mm 0.00 in/hr0.0 mm/hr 0.00 in0.0 mm
08:10 AM 14.1°F-9.9°C 2.0°F-16.7°C 58% 5.0 mph N8.0 kmh N 16.0 mph25.7 kmh 29.69 in1005.4 mb 0.00 in0.0 mm 0.00 in/hr0.0 mm/hr 0.00 in0.0 mm
08:05 AM 14.3°F-9.8°C 2.2°F-16.6°C 58% 1.0 mph WNW1.6 kmh WNW 21.0 mph33.8 kmh 29.69 in1005.4 mb 0.00 in0.0 mm 0.00 in/hr0.0 mm/hr 0.00 in0.0 mm
08:00 AM 14.4°F-9.8°C 2.3°F-16.5°C 58% 13.0 mph N20.9 kmh N 16.0 mph25.7 kmh 29.69 in1005.4 mb 0.00 in0.0 mm 0.00 in/hr0.0 mm/hr 0.00 in0.0 mm
07:55 AM 14.4°F-9.8°C 2.3°F-16.5°C 58% 8.0 mph NNW12.9 kmh NNW 13.0 mph20.9 kmh 29.69 in1005.4 mb 0.00 in0.0 mm 0.00 in/hr0.0 mm/hr 0.00 in0.0 mm
07:50 AM 14.6°F-9.7°C 2.5°F-16.4°C 58% 8.0 mph N12.9 kmh N 16.0 mph25.7 kmh 29.69 in1005.4 mb 0.00 in0.0 mm 0.00 in/hr0.0 mm/hr 0.00 in0.0 mm
07:45 AM 14.6°F-9.7°C 2.5°F-16.4°C 58% 12.0 mph NW19.3 kmh NW 15.0 mph24.1 kmh 29.69 in1005.4 mb 0.00 in0.0 mm 0.00 in/hr0.0 mm/hr 0.00 in0.0 mm
07:40 AM 14.8°F-9.6°C 2.7°F-16.3°C 58% 10.0 mph WSW16.1 kmh WSW 15.0 mph24.1 kmh 29.69 in1005.4 mb 0.00 in0.0 mm 0.00 in/hr0.0 mm/hr 0.00 in0.0 mm
07:35 AM 14.8°F-9.6°C 2.7°F-16.3°C 58% 13.0 mph N20.9 kmh N 17.0 mph27.4 kmh 29.69 in1005.4 mb 0.00 in0.0 mm 0.00 in/hr0.0 mm/hr 0.00 in0.0 mm
07:30 AM 14.9°F-9.5°C 3.1°F-16.1°C 59% 10.0 mph NNW16.1 kmh NNW 18.0 mph29.0 kmh 29.69 in1005.4 mb 0.00 in0.0 mm 0.00 in/hr0.0 mm/hr 0.00 in0.0 mm
07:25 AM 14.9°F-9.5°C 2.8°F-16.2°C 58% 6.0 mph NW9.7 kmh NW 15.0 mph24.1 kmh 29.69 in1005.4 mb 0.00 in0.0 mm 0.00 in/hr0.0 mm/hr 0.00 in0.0 mm
07:20 AM 14.9°F-9.5°C 3.1°F-16.1°C 59% 3.0 mph NNW4.8 kmh NNW 16.0 mph25.7 kmh 29.69 in1005.4 mb 0.00 in0.0 mm 0.00 in/hr0.0 mm/hr 0.00 in0.0 mm
07:15 AM 15.1°F-9.4°C 3.3°F-15.9°C 59% Calm Calm 15.0 mph24.1 kmh 29.69 in1005.4 mb 0.00 in0.0 mm 0.00 in/hr0.0 mm/hr 0.00 in0.0 mm
07:10 AM 15.1°F-9.4°C 3.0°F-16.1°C 58% 2.0 mph WSW3.2 kmh WSW 17.0 mph27.4 kmh 29.69 in1005.4 mb 0.00 in0.0 mm 0.00 in/hr0.0 mm/hr 0.00 in0.0 mm
07:05 AM 15.1°F-9.4°C 3.0°F-16.1°C 58% 3.0 mph NNW4.8 kmh NNW 17.0 mph27.4 kmh 29.69 in1005.4 mb 0.00 in0.0 mm 0.00 in/hr0.0 mm/hr 0.00 in0.0 mm
07:00 AM 15.1°F-9.4°C 3.3°F-15.9°C 59% 12.0 mph NNW19.3 kmh NNW 14.0 mph22.5 kmh 29.69 in1005.4 mb 0.00 in0.0 mm 0.00 in/hr0.0 mm/hr 0.00 in0.0 mm
06:55 AM 15.2°F-9.3°C 3.4°F-15.9°C 59% 8.0 mph NNW12.9 kmh NNW 17.0 mph27.4 kmh 29.69 in1005.4 mb 0.00 in0.0 mm 0.00 in/hr0.0 mm/hr 0.00 in0.0 mm
06:50 AM 15.2°F-9.3°C 3.4°F-15.9°C 59% 10.0 mph N16.1 kmh N 13.0 mph20.9 kmh 29.69 in1005.4 mb 0.00 in0.0 mm 0.00 in/hr0.0 mm/hr 0.00 in0.0 mm
06:45 AM 15.4°F-9.2°C 3.6°F-15.8°C 59% 9.0 mph NW14.5 kmh NW 17.0 mph27.4 kmh 29.69 in1005.4 mb 0.00 in0.0 mm 0.00 in/hr0.0 mm/hr 0.00 in0.0 mm
06:40 AM 15.4°F-9.2°C 3.6°F-15.8°C 59% 10.0 mph NW16.1 kmh NW 15.0 mph24.1 kmh 29.69 in1005.4 mb 0.00 in0.0 mm 0.00 in/hr0.0 mm/hr 0.00 in0.0 mm
06:35 AM 15.6°F-9.1°C 4.2°F-15.4°C 60% 15.0 mph NNW24.1 kmh NNW 15.0 mph24.1 kmh 29.69 in1005.4 mb 0.00 in0.0 mm 0.00 in/hr0.0 mm/hr 0.00 in0.0 mm
06:30 AM 15.6°F-9.1°C 4.2°F-15.4°C 60% 7.0 mph N11.3 kmh N 12.0 mph19.3 kmh 29.69 in1005.4 mb 0.00 in0.0 mm 0.00 in/hr0.0 mm/hr 0.00 in0.0 mm
06:25 AM 15.7°F-9.1°C 3.9°F-15.6°C 59% 6.0 mph N9.7 kmh N 16.0 mph25.7 kmh 29.69 in1005.4 mb 0.00 in0.0 mm 0.00 in/hr0.0 mm/hr 0.00 in0.0 mm
06:20 AM 15.9°F-8.9°C 4.1°F-15.5°C 59% 7.0 mph N11.3 kmh N 17.0 mph27.4 kmh 29.69 in1005.4 mb 0.00 in0.0 mm 0.00 in/hr0.0 mm/hr 0.00 in0.0 mm
06:15 AM 16.1°F-8.8°C 4.3°F-15.4°C 59% Calm Calm 15.0 mph24.1 kmh 29.69 in1005.4 mb 0.00 in0.0 mm 0.00 in/hr0.0 mm/hr 0.00 in0.0 mm
06:10 AM 16.1°F-8.8°C 4.3°F-15.4°C 59% 11.0 mph N17.7 kmh N 18.0 mph29.0 kmh 29.69 in1005.4 mb 0.00 in0.0 mm 0.00 in/hr0.0 mm/hr 0.00 in0.0 mm
06:05 AM 16.2°F-8.8°C 4.4°F-15.3°C 59% 5.0 mph NNW8.0 kmh NNW 15.0 mph24.1 kmh 29.69 in1005.4 mb 0.00 in0.0 mm 0.00 in/hr0.0 mm/hr 0.00 in0.0 mm
06:00 AM 16.4°F-8.7°C 4.6°F-15.2°C 59% 6.0 mph WNW9.7 kmh WNW 15.0 mph24.1 kmh 29.69 in1005.4 mb 0.00 in0.0 mm 0.00 in/hr0.0 mm/hr 0.00 in0.0 mm
05:55 AM 16.4°F-8.7°C 4.6°F-15.2°C 59% 14.0 mph N22.5 kmh N 22.0 mph35.4 kmh 29.70 in1005.8 mb 0.00 in0.0 mm 0.00 in/hr0.0 mm/hr 0.00 in0.0 mm
05:50 AM 16.5°F-8.6°C 4.7°F-15.2°C 59% 19.0 mph N30.6 kmh N 22.0 mph35.4 kmh 29.70 in1005.8 mb 0.00 in0.0 mm 0.00 in/hr0.0 mm/hr 0.00 in0.0 mm
05:45 AM 16.5°F-8.6°C 4.7°F-15.2°C 59% 1.0 mph N1.6 kmh N 18.0 mph29.0 kmh 29.70 in1005.8 mb 0.00 in0.0 mm 0.00 in/hr0.0 mm/hr 0.00 in0.0 mm
05:40 AM 16.7°F-8.5°C 4.8°F-15.1°C 59% 4.0 mph NW6.4 kmh NW 21.0 mph33.8 kmh 29.71 in1006.1 mb 0.00 in0.0 mm 0.00 in/hr0.0 mm/hr 0.00 in0.0 mm
05:35 AM 16.7°F-8.5°C 4.8°F-15.1°C 59% 7.0 mph N11.3 kmh N 21.0 mph33.8 kmh 29.71 in1006.1 mb 0.00 in0.0 mm 0.00 in/hr0.0 mm/hr 0.00 in0.0 mm
05:30 AM 16.9°F-8.4°C 5.4°F-14.8°C 60% 5.0 mph NNE8.0 kmh NNE 11.0 mph17.7 kmh 29.71 in1006.1 mb 0.00 in0.0 mm 0.00 in/hr0.0 mm/hr 0.00 in0.0 mm
05:25 AM 17.0°F-8.3°C 5.5°F-14.7°C 60% 4.0 mph NNW6.4 kmh NNW 16.0 mph25.7 kmh 29.71 in1006.1 mb 0.00 in0.0 mm 0.00 in/hr0.0 mm/hr 0.00 in0.0 mm
05:20 AM 17.0°F-8.3°C 5.1°F-14.9°C 59% 9.0 mph NNW14.5 kmh NNW 15.0 mph24.1 kmh 29.71 in1006.1 mb 0.00 in0.0 mm 0.00 in/hr0.0 mm/hr 0.00 in0.0 mm
05:15 AM 17.2°F-8.2°C 5.3°F-14.8°C 59% 5.0 mph NW8.0 kmh NW 15.0 mph24.1 kmh 29.71 in1006.1 mb 0.00 in0.0 mm 0.00 in/hr0.0 mm/hr 0.00 in0.0 mm
05:10 AM 17.3°F-8.2°C 5.0°F-15.0°C 58% 12.0 mph NW19.3 kmh NW 14.0 mph22.5 kmh 29.71 in1006.1 mb 0.00 in0.0 mm 0.00 in/hr0.0 mm/hr 0.00 in0.0 mm
05:05 AM 17.7°F-7.9°C 5.8°F-14.6°C 59% 1.0 mph NNW1.6 kmh NNW 12.0 mph19.3 kmh 29.71 in1006.1 mb 0.00 in0.0 mm 0.00 in/hr0.0 mm/hr 0.00 in0.0 mm
05:00 AM 17.7°F-7.9°C 5.4°F-14.8°C 58% 10.0 mph N16.1 kmh N 16.0 mph25.7 kmh 29.71 in1006.1 mb 0.00 in0.0 mm 0.00 in/hr0.0 mm/hr 0.04 in1.0 mm
04:55 AM 17.8°F-7.9°C 5.5°F-14.7°C 58% 5.0 mph NW8.0 kmh NW 19.0 mph30.6 kmh 29.72 in1006.4 mb 0.00 in0.0 mm 0.00 in/hr0.0 mm/hr 0.04 in1.0 mm
04:50 AM 18.0°F-7.8°C 5.7°F-14.6°C 58% 7.0 mph NW11.3 kmh NW 12.0 mph19.3 kmh 29.72 in1006.4 mb 0.00 in0.0 mm 0.00 in/hr0.0 mm/hr 0.04 in1.0 mm
04:45 AM 18.0°F-7.8°C 5.7°F-14.6°C 58% 8.0 mph NNE12.9 kmh NNE 16.0 mph25.7 kmh 29.72 in1006.4 mb 0.00 in0.0 mm 0.00 in/hr0.0 mm/hr 0.04 in1.0 mm
04:40 AM 18.1°F-7.7°C 5.8°F-14.6°C 58% 4.0 mph NNW6.4 kmh NNW 16.0 mph25.7 kmh 29.72 in1006.4 mb 0.00 in0.0 mm 0.00 in/hr0.0 mm/hr 0.04 in1.0 mm
04:35 AM 18.3°F-7.6°C 6.0°F-14.4°C 58% 6.0 mph NNW9.7 kmh NNW 16.0 mph25.7 kmh 29.72 in1006.4 mb 0.00 in0.0 mm 0.00 in/hr0.0 mm/hr 0.04 in1.0 mm
04:30 AM 18.3°F-7.6°C 6.0°F-14.4°C 58% 11.0 mph NNW17.7 kmh NNW 14.0 mph22.5 kmh 29.72 in1006.4 mb 0.00 in0.0 mm 0.00 in/hr0.0 mm/hr 0.04 in1.0 mm
04:25 AM 18.4°F-7.6°C 6.4°F-14.2°C 59% 5.0 mph WNW8.0 kmh WNW 11.0 mph17.7 kmh 29.72 in1006.4 mb 0.00 in0.0 mm 0.00 in/hr0.0 mm/hr 0.04 in1.0 mm
04:20 AM 18.6°F-7.4°C 6.6°F-14.1°C 59% 1.0 mph NW1.6 kmh NW 19.0 mph30.6 kmh 29.72 in1006.4 mb 0.00 in0.0 mm 0.00 in/hr0.0 mm/hr 0.04 in1.0 mm
04:15 AM 18.8°F-7.3°C 6.8°F-14.0°C 59% 4.0 mph N6.4 kmh N 18.0 mph29.0 kmh 29.72 in1006.4 mb 0.00 in0.0 mm 0.00 in/hr0.0 mm/hr 0.04 in1.0 mm
04:10 AM 18.9°F-7.3°C 6.9°F-13.9°C 59% 2.0 mph NNW3.2 kmh NNW 13.0 mph20.9 kmh 29.73 in1006.8 mb 0.00 in0.0 mm 0.00 in/hr0.0 mm/hr 0.04 in1.0 mm
04:05 AM 19.1°F-7.2°C 7.1°F-13.8°C 59% 9.0 mph NNW14.5 kmh NNW 14.0 mph22.5 kmh 29.73 in1006.8 mb 0.00 in0.0 mm 0.00 in/hr0.0 mm/hr 0.04 in1.0 mm
04:00 AM 19.2°F-7.1°C 7.2°F-13.8°C 59% 3.0 mph N4.8 kmh N 15.0 mph24.1 kmh 29.73 in1006.8 mb 0.00 in0.0 mm 0.00 in/hr0.0 mm/hr 0.04 in1.0 mm
03:55 AM 19.5°F-6.9°C 7.5°F-13.6°C 59% 14.0 mph NNE22.5 kmh NNE 19.0 mph30.6 kmh 29.72 in1006.4 mb 0.00 in0.0 mm 0.00 in/hr0.0 mm/hr 0.04 in1.0 mm
03:50 AM 19.7°F-6.8°C 8.0°F-13.3°C 60% 3.0 mph NW4.8 kmh NW 12.0 mph19.3 kmh 29.72 in1006.4 mb 0.00 in0.0 mm 0.00 in/hr0.0 mm/hr 0.04 in1.0 mm
03:45 AM 19.9°F-6.7°C 8.2°F-13.2°C 60% 1.0 mph N1.6 kmh N 16.0 mph25.7 kmh 29.72 in1006.4 mb 0.00 in0.0 mm 0.00 in/hr0.0 mm/hr 0.04 in1.0 mm
03:40 AM 20.2°F-6.6°C 8.5°F-13.1°C 60% 8.0 mph N12.9 kmh N 13.0 mph20.9 kmh 29.72 in1006.4 mb 0.00 in0.0 mm 0.00 in/hr0.0 mm/hr 0.04 in1.0 mm
03:35 AM 20.5°F-6.4°C 9.2°F-12.7°C 61% 6.0 mph NW9.7 kmh NW 13.0 mph20.9 kmh 29.72 in1006.4 mb 0.00 in0.0 mm 0.00 in/hr0.0 mm/hr 0.04 in1.0 mm
03:30 AM 20.6°F-6.3°C 8.9°F-12.8°C 60% 5.0 mph NNW8.0 kmh NNW 14.0 mph22.5 kmh 29.72 in1006.4 mb 0.00 in0.0 mm 0.00 in/hr0.0 mm/hr 0.04 in1.0 mm
03:25 AM 20.6°F-6.3°C 8.9°F-12.8°C 60% 4.0 mph NNW6.4 kmh NNW 11.0 mph17.7 kmh 29.71 in1006.1 mb 0.00 in0.0 mm 0.00 in/hr0.0 mm/hr 0.04 in1.0 mm
03:20 AM 20.8°F-6.2°C 9.1°F-12.7°C 60% 8.0 mph NW12.9 kmh NW 17.0 mph27.4 kmh 29.71 in1006.1 mb 0.00 in0.0 mm 0.00 in/hr0.0 mm/hr 0.04 in1.0 mm
03:15 AM 21.1°F-6.1°C 9.0°F-12.8°C 59% 5.0 mph N8.0 kmh N 16.0 mph25.7 kmh 29.71 in1006.1 mb 0.00 in0.0 mm 0.00 in/hr0.0 mm/hr 0.04 in1.0 mm
03:10 AM 21.6°F-5.8°C 9.8°F-12.3°C 60% 12.0 mph NNW19.3 kmh NNW 13.0 mph20.9 kmh 29.71 in1006.1 mb 0.00 in0.0 mm 0.00 in/hr0.0 mm/hr 0.04 in1.0 mm
03:05 AM 21.9°F-5.6°C 10.9°F-11.7°C 62% 3.0 mph N4.8 kmh N 15.0 mph24.1 kmh 29.71 in1006.1 mb 0.00 in0.0 mm 0.00 in/hr0.0 mm/hr 0.04 in1.0 mm
03:00 AM 22.1°F-5.5°C 10.7°F-11.8°C 61% 6.0 mph NNW9.7 kmh NNW 14.0 mph22.5 kmh 29.71 in1006.1 mb 0.00 in0.0 mm 0.00 in/hr0.0 mm/hr 0.04 in1.0 mm
02:55 AM 22.4°F-5.3°C 11.0°F-11.7°C 61% 8.0 mph NW12.9 kmh NW 24.0 mph38.6 kmh 29.71 in1006.1 mb 0.00 in0.0 mm 0.00 in/hr0.0 mm/hr 0.04 in1.0 mm
02:50 AM 22.5°F-5.3°C 11.4°F-11.4°C 62% 8.0 mph NNW12.9 kmh NNW 17.0 mph27.4 kmh 29.71 in1006.1 mb 0.00 in0.0 mm 0.00 in/hr0.0 mm/hr 0.04 in1.0 mm
02:45 AM 22.7°F-5.2°C 11.6°F-11.3°C 62% 1.0 mph N1.6 kmh N 18.0 mph29.0 kmh 29.71 in1006.1 mb 0.00 in0.0 mm 0.00 in/hr0.0 mm/hr 0.04 in1.0 mm
02:40 AM 22.9°F-5.1°C 12.2°F-11.0°C 63% 10.0 mph NNW16.1 kmh NNW 19.0 mph30.6 kmh 29.71 in1006.1 mb 0.00 in0.0 mm 0.00 in/hr0.0 mm/hr 0.04 in1.0 mm
02:35 AM 23.2°F-4.9°C 12.8°F-10.7°C 64% 10.0 mph N16.1 kmh N 14.0 mph22.5 kmh 29.71 in1006.1 mb 0.00 in0.0 mm 0.00 in/hr0.0 mm/hr 0.04 in1.0 mm
02:30 AM 23.3°F-4.8°C 12.9°F-10.6°C 64% 1.0 mph NW1.6 kmh NW 14.0 mph22.5 kmh 29.71 in1006.1 mb 0.00 in0.0 mm 0.00 in/hr0.0 mm/hr 0.04 in1.0 mm
02:25 AM 23.5°F-4.7°C 13.1°F-10.5°C 64% 9.0 mph N14.5 kmh N 15.0 mph24.1 kmh 29.71 in1006.1 mb 0.00 in0.0 mm 0.00 in/hr0.0 mm/hr 0.04 in1.0 mm
02:20 AM 23.6°F-4.7°C 13.2°F-10.4°C 64% 7.0 mph NNW11.3 kmh NNW 22.0 mph35.4 kmh 29.71 in1006.1 mb 0.00 in0.0 mm 0.00 in/hr0.0 mm/hr 0.04 in1.0 mm
02:15 AM 23.9°F-4.5°C 13.5°F-10.3°C 64% 7.0 mph N11.3 kmh N 21.0 mph33.8 kmh 29.71 in1006.1 mb 0.00 in0.0 mm 0.00 in/hr0.0 mm/hr 0.04 in1.0 mm
02:10 AM 24.2°F-4.3°C 14.1°F-9.9°C 65% 6.0 mph N9.7 kmh N 19.0 mph30.6 kmh 29.70 in1005.8 mb 0.00 in0.0 mm 0.00 in/hr0.0 mm/hr 0.04 in1.0 mm
02:05 AM 24.5°F-4.2°C 14.0°F-10.0°C 64% 3.0 mph NW4.8 kmh NW 16.0 mph25.7 kmh 29.70 in1005.8 mb 0.00 in0.0 mm 0.00 in/hr0.0 mm/hr 0.04 in1.0 mm
02:00 AM 25.0°F-3.9°C 14.9°F-9.5°C 65% 7.0 mph NNW11.3 kmh NNW 18.0 mph29.0 kmh 29.70 in1005.8 mb 0.00 in0.0 mm 0.00 in/hr0.0 mm/hr 0.04 in1.0 mm
01:55 AM 25.6°F-3.6°C 15.8°F-9.0°C 66% 16.0 mph NNW25.7 kmh NNW 17.0 mph27.4 kmh 29.71 in1006.1 mb 0.00 in0.0 mm 0.00 in/hr0.0 mm/hr 0.04 in1.0 mm
01:50 AM 25.8°F-3.4°C 16.0°F-8.9°C 66% 2.0 mph N3.2 kmh N 11.0 mph17.7 kmh 29.71 in1006.1 mb 0.00 in0.0 mm 0.00 in/hr0.0 mm/hr 0.04 in1.0 mm
01:45 AM 26.0°F-3.3°C 16.2°F-8.8°C 66% 3.0 mph N4.8 kmh N 15.0 mph24.1 kmh 29.71 in1006.1 mb 0.00 in0.0 mm 0.00 in/hr0.0 mm/hr 0.04 in1.0 mm
01:40 AM 26.1°F-3.3°C 16.3°F-8.7°C 66% 7.0 mph NNW11.3 kmh NNW 16.0 mph25.7 kmh 29.71 in1006.1 mb 0.00 in0.0 mm 0.00 in/hr0.0 mm/hr 0.04 in1.0 mm
01:35 AM 26.3°F-3.2°C 16.5°F-8.6°C 66% 3.0 mph N4.8 kmh N 14.0 mph22.5 kmh 29.71 in1006.1 mb 0.00 in0.0 mm 0.00 in/hr0.0 mm/hr 0.04 in1.0 mm
01:30 AM 26.6°F-3.0°C 17.1°F-8.3°C 67% 6.0 mph NNW9.7 kmh NNW 15.0 mph24.1 kmh 29.71 in1006.1 mb 0.00 in0.0 mm 0.00 in/hr0.0 mm/hr 0.04 in1.0 mm
01:25 AM 26.7°F-2.9°C 17.9°F-7.8°C 69% 4.0 mph NNW6.4 kmh NNW 13.0 mph20.9 kmh 29.71 in1006.1 mb 0.00 in0.0 mm 0.00 in/hr0.0 mm/hr 0.04 in1.0 mm
01:20 AM 26.9°F-2.8°C 18.1°F-7.7°C 69% 7.0 mph N11.3 kmh N 10.0 mph16.1 kmh 29.71 in1006.1 mb 0.00 in0.0 mm 0.00 in/hr0.0 mm/hr 0.04 in1.0 mm
01:15 AM 27.0°F-2.8°C 18.2°F-7.7°C 69% 2.0 mph NNW3.2 kmh NNW 11.0 mph17.7 kmh 29.71 in1006.1 mb 0.00 in0.0 mm 0.00 in/hr0.0 mm/hr 0.04 in1.0 mm
01:10 AM 27.3°F-2.6°C 18.4°F-7.6°C 69% 4.0 mph NE6.4 kmh NE 19.0 mph30.6 kmh 29.70 in1005.8 mb 0.00 in0.0 mm 0.00 in/hr0.0 mm/hr 0.04 in1.0 mm
01:05 AM 27.8°F-2.3°C 19.3°F-7.1°C 70% 5.0 mph NNW8.0 kmh NNW 13.0 mph20.9 kmh 29.70 in1005.8 mb 0.00 in0.0 mm 0.00 in/hr0.0 mm/hr 0.04 in1.0 mm
01:00 AM 28.1°F-2.2°C 19.9°F-6.7°C 71% 4.0 mph NNW6.4 kmh NNW 11.0 mph17.7 kmh 29.70 in1005.8 mb 0.00 in0.0 mm 0.00 in/hr0.0 mm/hr 0.04 in1.0 mm
12:55 AM 28.2°F-2.1°C 20.0°F-6.7°C 71% 5.0 mph N8.0 kmh N 12.0 mph19.3 kmh 29.69 in1005.4 mb 0.00 in0.0 mm 0.00 in/hr0.0 mm/hr 0.04 in1.0 mm
12:50 AM 28.4°F-2.0°C 20.2°F-6.6°C 71% Calm Calm 12.0 mph19.3 kmh 29.69 in1005.4 mb 0.00 in0.0 mm 0.00 in/hr0.0 mm/hr 0.04 in1.0 mm
12:45 AM 28.7°F-1.8°C 20.5°F-6.4°C 71% 4.0 mph N6.4 kmh N 11.0 mph17.7 kmh 29.69 in1005.4 mb 0.00 in0.0 mm 0.00 in/hr0.0 mm/hr 0.04 in1.0 mm
12:40 AM 28.8°F-1.8°C 20.9°F-6.2°C 72% 6.0 mph NNW9.7 kmh NNW 11.0 mph17.7 kmh 29.70 in1005.8 mb 0.00 in0.0 mm 0.00 in/hr0.0 mm/hr 0.04 in1.0 mm
12:35 AM 29.0°F-1.7°C 21.1°F-6.1°C 72% 3.0 mph NW4.8 kmh NW 11.0 mph17.7 kmh 29.70 in1005.8 mb 0.00 in0.0 mm 0.00 in/hr0.0 mm/hr 0.04 in1.0 mm
12:30 AM 29.1°F-1.6°C 21.2°F-6.0°C 72% 1.0 mph N1.6 kmh N 10.0 mph16.1 kmh 29.70 in1005.8 mb 0.00 in0.0 mm 0.00 in/hr0.0 mm/hr 0.04 in1.0 mm
12:25 AM 29.1°F-1.6°C 21.2°F-6.0°C 72% 5.0 mph NW8.0 kmh NW 11.0 mph17.7 kmh 29.70 in1005.8 mb 0.00 in0.0 mm 0.00 in/hr0.0 mm/hr 0.04 in1.0 mm
12:20 AM 29.3°F-1.5°C 21.7°F-5.7°C 73% 3.0 mph NNW4.8 kmh NNW 19.0 mph30.6 kmh 29.70 in1005.8 mb 0.00 in0.0 mm 0.00 in/hr0.0 mm/hr 0.04 in1.0 mm
12:15 AM 29.4°F-1.4°C 22.4°F-5.3°C 75% 1.0 mph NW1.6 kmh NW 13.0 mph20.9 kmh 29.70 in1005.8 mb 0.00 in0.0 mm 0.00 in/hr0.0 mm/hr 0.04 in1.0 mm
12:10 AM 29.7°F-1.3°C 23.0°F-5.0°C 76% 1.0 mph NW1.6 kmh NW 9.0 mph14.5 kmh 29.69 in1005.4 mb 0.00 in0.0 mm 0.00 in/hr0.0 mm/hr 0.04 in1.0 mm
12:05 AM 29.7°F-1.3°C 23.0°F-5.0°C 76% 6.0 mph NNW9.7 kmh NNW 11.0 mph17.7 kmh 29.69 in1005.4 mb 0.00 in0.0 mm 0.00 in/hr0.0 mm/hr 0.04 in1.0 mm
12:00 AM 29.7°F-1.3°C 22.7°F-5.2°C 75% 2.0 mph 3.2 kmh 8.0 mph12.9 kmh 29.69 in1005.4 mb 0.00 in0.0 mm 0.00 in/hr0.0 mm/hr 0.04 in1.0 mm